sensor_id;sensor_type;location;lat;lon;timestamp;pressure;altitude;pressure_sealevel;temperature;humidity
73453;BME280;61687;56.232;43.854;2022-10-16T00:02:06;102066.34;;;3.25;79.20
73453;BME280;61687;56.232;43.854;2022-10-16T00:04:32;102060.91;;;3.25;79.13
73453;BME280;61687;56.232;43.854;2022-10-16T00:06:58;102064.16;;;3.27;78.98
73453;BME280;61687;56.232;43.854;2022-10-16T00:09:24;102067.16;;;3.25;79.23
73453;BME280;61687;56.232;43.854;2022-10-16T00:11:50;102063.38;;;3.26;79.15
73453;BME280;61687;56.232;43.854;2022-10-16T00:14:16;102067.44;;;3.29;79.14
73453;BME280;61687;56.232;43.854;2022-10-16T00:16:42;102069.84;;;3.31;78.96
73453;BME280;61687;56.232;43.854;2022-10-16T00:19:10;102067.69;;;3.33;79.15
73453;BME280;61687;56.232;43.854;2022-10-16T00:21:36;102070.94;;;3.35;79.06
73453;BME280;61687;56.232;43.854;2022-10-16T00:24:21;102072.28;;;3.37;79.13
73453;BME280;61687;56.232;43.854;2022-10-16T00:26:49;102078.50;;;3.43;78.97
73453;BME280;61687;56.232;43.854;2022-10-16T00:29:15;102074.44;;;3.46;78.83
73453;BME280;61687;56.232;43.854;2022-10-16T00:31:41;102081.19;;;3.53;78.74
73453;BME280;61687;56.232;43.854;2022-10-16T00:34:07;102082.25;;;3.57;78.64
73453;BME280;61687;56.232;43.854;2022-10-16T00:36:33;102085.22;;;3.61;78.60
73453;BME280;61687;56.232;43.854;2022-10-16T00:38:59;102087.13;;;3.66;78.70
73453;BME280;61687;56.232;43.854;2022-10-16T00:41:26;102082.50;;;3.66;78.78
73453;BME280;61687;56.232;43.854;2022-10-16T00:43:57;102085.22;;;3.71;78.69
73453;BME280;61687;56.232;43.854;2022-10-16T00:46:37;102088.69;;;3.77;78.63
73453;BME280;61687;56.232;43.854;2022-10-16T00:49:06;102086.53;;;3.84;78.68
73453;BME280;61687;56.232;43.854;2022-10-16T00:51:37;102090.53;;;3.92;78.48
73453;BME280;61687;56.232;43.854;2022-10-16T00:54:08;102089.72;;;3.97;78.25
73453;BME280;61687;56.232;43.854;2022-10-16T00:56:34;102091.88;;;4.00;78.41
73453;BME280;61687;56.232;43.854;2022-10-16T00:59:04;102089.69;;;4.02;78.11
73453;BME280;61687;56.232;43.854;2022-10-16T01:01:32;102096.19;;;4.06;78.09
73453;BME280;61687;56.232;43.854;2022-10-16T01:03:58;102096.16;;;4.11;78.03
73453;BME280;61687;56.232;43.854;2022-10-16T01:06:33;102093.72;;;4.15;78.19
73453;BME280;61687;56.232;43.854;2022-10-16T01:09:13;102089.63;;;4.18;78.17
73453;BME280;61687;56.232;43.854;2022-10-16T01:12:09;102098.53;;;4.23;78.26
73453;BME280;61687;56.232;43.854;2022-10-16T01:15:14;102093.38;;;4.27;78.07
73453;BME280;61687;56.232;43.854;2022-10-16T01:28:17;102095.50;;;4.35;78.25
73453;BME280;61687;56.232;43.854;2022-10-16T01:30:45;102093.31;;;4.37;78.24
73453;BME280;61687;56.232;43.854;2022-10-16T01:33:20;102097.91;;;4.42;78.23
73453;BME280;61687;56.232;43.854;2022-10-16T01:35:52;102103.56;;;4.46;78.35
73453;BME280;61687;56.232;43.854;2022-10-16T01:38:23;102095.69;;;4.49;78.29
73453;BME280;61687;56.232;43.854;2022-10-16T01:40:55;102094.00;;;4.53;78.21
73453;BME280;61687;56.232;43.854;2022-10-16T01:43:28;102102.94;;;4.59;78.19
73453;BME280;61687;56.232;43.854;2022-10-16T01:45:57;102106.72;;;4.63;78.00
73453;BME280;61687;56.232;43.854;2022-10-16T01:48:25;102099.38;;;4.64;78.05
73453;BME280;61687;56.232;43.854;2022-10-16T01:50:59;102105.06;;;4.67;78.00
73453;BME280;61687;56.232;43.854;2022-10-16T01:53:27;102090.09;;;4.70;77.93
73453;BME280;61687;56.232;43.854;2022-10-16T01:55:55;102096.84;;;4.78;77.71
73453;BME280;61687;56.232;43.854;2022-10-16T01:58:25;102099.81;;;4.81;77.70
73453;BME280;61687;56.232;43.854;2022-10-16T02:00:52;102104.66;;;4.84;77.75
73453;BME280;61687;56.232;43.854;2022-10-16T02:03:19;102108.72;;;4.87;77.41
73453;BME280;61687;56.232;43.854;2022-10-16T02:05:50;102110.06;;;4.90;77.43
73453;BME280;61687;56.232;43.854;2022-10-16T02:08:17;102114.13;;;4.92;77.47
73453;BME280;61687;56.232;43.854;2022-10-16T02:10:43;102115.44;;;4.95;77.38
73453;BME280;61687;56.232;43.854;2022-10-16T02:13:13;102112.16;;;4.98;77.38
73453;BME280;61687;56.232;43.854;2022-10-16T02:16:02;102115.13;;;5.01;76.98
73453;BME280;61687;56.232;43.854;2022-10-16T02:18:28;102120.81;;;5.05;76.90
73453;BME280;61687;56.232;43.854;2022-10-16T02:21:11;102115.59;;;5.09;76.61
73453;BME280;61687;56.232;43.854;2022-10-16T02:29:24;102114.41;;;5.20;76.09
73453;BME280;61687;56.232;43.854;2022-10-16T02:31:56;102121.75;;;5.20;76.16
73453;BME280;61687;56.232;43.854;2022-10-16T02:34:25;102120.69;;;5.21;75.90
73453;BME280;61687;56.232;43.854;2022-10-16T02:36:53;102125.56;;;5.19;75.90
73453;BME280;61687;56.232;43.854;2022-10-16T02:39:20;102122.84;;;5.19;75.95
73453;BME280;61687;56.232;43.854;2022-10-16T02:41:47;102125.28;;;5.20;76.03
73453;BME280;61687;56.232;43.854;2022-10-16T02:44:13;102131.84;;;5.19;76.12
73453;BME280;61687;56.232;43.854;2022-10-16T02:46:39;102123.16;;;5.17;76.21
73453;BME280;61687;56.232;43.854;2022-10-16T02:49:05;102130.22;;;5.18;76.35
73453;BME280;61687;56.232;43.854;2022-10-16T02:51:31;102135.31;;;5.25;76.22
73453;BME280;61687;56.232;43.854;2022-10-16T02:53:57;102131.19;;;5.27;76.15
73453;BME280;61687;56.232;43.854;2022-10-16T02:56:23;102131.44;;;5.31;75.93
73453;BME280;61687;56.232;43.854;2022-10-16T02:58:49;102131.41;;;5.36;75.73
73453;BME280;61687;56.232;43.854;2022-10-16T03:01:15;102127.88;;;5.36;75.67
73453;BME280;61687;56.232;43.854;2022-10-16T03:03:42;102130.28;;;5.37;75.65
73453;BME280;61687;56.232;43.854;2022-10-16T03:06:08;102137.06;;;5.40;75.57
73453;BME280;61687;56.232;43.854;2022-10-16T03:08:34;102131.38;;;5.41;75.48
73453;BME280;61687;56.232;43.854;2022-10-16T03:11:00;102130.28;;;5.42;75.46
73453;BME280;61687;56.232;43.854;2022-10-16T03:13:28;102131.59;;;5.45;75.39
73453;BME280;61687;56.232;43.854;2022-10-16T03:15:53;102132.41;;;5.46;75.26
73453;BME280;61687;56.232;43.854;2022-10-16T03:18:19;102131.31;;;5.47;75.30
73453;BME280;61687;56.232;43.854;2022-10-16T03:20:45;102138.38;;;5.48;75.37
73453;BME280;61687;56.232;43.854;2022-10-16T03:23:11;102136.16;;;5.50;75.31
73453;BME280;61687;56.232;43.854;2022-10-16T03:25:37;102137.31;;;5.43;75.40
73453;BME280;61687;56.232;43.854;2022-10-16T03:28:03;102142.00;;;5.38;75.65
73453;BME280;61687;56.232;43.854;2022-10-16T03:30:29;102145.50;;;5.38;75.59
73453;BME280;61687;56.232;43.854;2022-10-16T03:32:55;102146.34;;;5.39;75.57
73453;BME280;61687;56.232;43.854;2022-10-16T03:35:22;102135.72;;;5.37;75.69
73453;BME280;61687;56.232;43.854;2022-10-16T03:37:48;102140.91;;;5.39;75.67
73453;BME280;61687;56.232;43.854;2022-10-16T03:40:14;102138.44;;;5.37;75.68
73453;BME280;61687;56.232;43.854;2022-10-16T03:42:42;102153.66;;;5.38;75.78
73453;BME280;61687;56.232;43.854;2022-10-16T03:45:09;102151.19;;;5.42;75.80
73453;BME280;61687;56.232;43.854;2022-10-16T03:47:35;102150.09;;;5.43;75.74
73453;BME280;61687;56.232;43.854;2022-10-16T03:50:01;102157.47;;;5.42;75.76
73453;BME280;61687;56.232;43.854;2022-10-16T03:52:28;102158.78;;;5.45;75.82
73453;BME280;61687;56.232;43.854;2022-10-16T03:54:55;102151.13;;;5.52;75.53
73453;BME280;61687;56.232;43.854;2022-10-16T03:57:21;102154.09;;;5.51;75.59
73453;BME280;61687;56.232;43.854;2022-10-16T03:59:47;102156.31;;;5.49;75.50
73453;BME280;61687;56.232;43.854;2022-10-16T04:02:13;102155.47;;;5.48;75.38
73453;BME280;61687;56.232;43.854;2022-10-16T04:04:39;102155.19;;;5.50;75.54
73453;BME280;61687;56.232;43.854;2022-10-16T04:07:04;102157.34;;;5.53;75.58
73453;BME280;61687;56.232;43.854;2022-10-16T04:09:30;102162.22;;;5.56;75.45
73453;BME280;61687;56.232;43.854;2022-10-16T04:11:56;102170.94;;;5.53;75.41
73453;BME280;61687;56.232;43.854;2022-10-16T04:14:22;102168.56;;;5.46;75.52
73453;BME280;61687;56.232;43.854;2022-10-16T04:16:48;102164.53;;;5.43;75.48
73453;BME280;61687;56.232;43.854;2022-10-16T04:19:14;102166.16;;;5.39;75.39
73453;BME280;61687;56.232;43.854;2022-10-16T04:21:40;102162.72;;;5.28;75.54
73453;BME280;61687;56.232;43.854;2022-10-16T04:24:06;102170.69;;;5.20;75.92
73453;BME280;61687;56.232;43.854;2022-10-16T04:26:32;102174.84;;;5.12;76.20
73453;BME280;61687;56.232;43.854;2022-10-16T04:28:57;102169.47;;;5.01;76.25
73453;BME280;61687;56.232;43.854;2022-10-16T04:31:23;102173.03;;;4.97;76.33
73453;BME280;61687;56.232;43.854;2022-10-16T04:33:49;102174.94;;;4.96;76.57
73453;BME280;61687;56.232;43.854;2022-10-16T04:36:15;102174.66;;;4.98;76.59
73453;BME280;61687;56.232;43.854;2022-10-16T04:38:41;102173.00;;;5.02;76.38
73453;BME280;61687;56.232;43.854;2022-10-16T04:41:07;102170.28;;;5.02;76.47
73453;BME280;61687;56.232;43.854;2022-10-16T04:43:34;102179.50;;;5.06;76.44
73453;BME280;61687;56.232;43.854;2022-10-16T04:46:00;102179.19;;;5.08;76.37
73453;BME280;61687;56.232;43.854;2022-10-16T04:48:26;102181.66;;;5.09;76.41
73453;BME280;61687;56.232;43.854;2022-10-16T04:50:52;102180.03;;;5.08;76.57
73453;BME280;61687;56.232;43.854;2022-10-16T04:53:18;102178.66;;;5.06;76.67
73453;BME280;61687;56.232;43.854;2022-10-16T04:55:44;102181.72;;;4.99;76.92
73453;BME280;61687;56.232;43.854;2022-10-16T04:58:10;102179.84;;;4.94;76.85
73453;BME280;61687;56.232;43.854;2022-10-16T05:00:36;102191.50;;;4.95;76.96
73453;BME280;61687;56.232;43.854;2022-10-16T05:03:02;102198.03;;;4.94;77.17
73453;BME280;61687;56.232;43.854;2022-10-16T05:05:31;102202.44;;;4.90;77.04
73453;BME280;61687;56.232;43.854;2022-10-16T05:07:57;102201.91;;;4.87;76.88
73453;BME280;61687;56.232;43.854;2022-10-16T05:10:23;102211.13;;;4.86;76.85
73453;BME280;61687;56.232;43.854;2022-10-16T05:12:49;102210.56;;;4.90;76.92
73453;BME280;61687;56.232;43.854;2022-10-16T05:15:15;102220.31;;;4.96;76.49
73453;BME280;61687;56.232;43.854;2022-10-16T05:17:41;102211.31;;;5.00;76.10
73453;BME280;61687;56.232;43.854;2022-10-16T05:20:07;102218.59;;;5.10;75.76
73453;BME280;61687;56.232;43.854;2022-10-16T05:22:33;102208.50;;;5.16;75.32
73453;BME280;61687;56.232;43.854;2022-10-16T05:24:59;102214.47;;;5.18;75.37
73453;BME280;61687;56.232;43.854;2022-10-16T05:27:25;102209.75;;;5.29;75.28
73453;BME280;61687;56.232;43.854;2022-10-16T05:29:51;102220.28;;;5.41;74.91
73453;BME280;61687;56.232;43.854;2022-10-16T05:32:18;102217.69;;;5.55;74.56
73453;BME280;61687;56.232;43.854;2022-10-16T05:34:44;102215.94;;;5.69;74.34
73453;BME280;61687;56.232;43.854;2022-10-16T05:37:11;102206.03;;;5.84;74.03
73453;BME280;61687;56.232;43.854;2022-10-16T05:39:37;102222.44;;;6.03;73.66
73453;BME280;61687;56.232;43.854;2022-10-16T05:42:04;102205.56;;;6.25;72.92
73453;BME280;61687;56.232;43.854;2022-10-16T05:44:30;102208.03;;;6.46;72.42
73453;BME280;61687;56.232;43.854;2022-10-16T05:46:56;102206.66;;;6.68;71.71
73453;BME280;61687;56.232;43.854;2022-10-16T05:49:22;102205.34;;;6.84;71.46
73453;BME280;61687;56.232;43.854;2022-10-16T05:51:48;102202.41;;;7.00;70.85
73453;BME280;61687;56.232;43.854;2022-10-16T05:54:14;102210.13;;;7.12;70.47
73453;BME280;61687;56.232;43.854;2022-10-16T05:56:40;102208.88;;;7.23;70.29
73453;BME280;61687;56.232;43.854;2022-10-16T05:59:06;102214.44;;;7.32;69.79
73453;BME280;61687;56.232;43.854;2022-10-16T06:01:32;102212.44;;;7.38;69.45
73453;BME280;61687;56.232;43.854;2022-10-16T06:03:58;102212.28;;;7.48;69.43
73453;BME280;61687;56.232;43.854;2022-10-16T06:06:26;102206.84;;;7.62;69.29
73453;BME280;61687;56.232;43.854;2022-10-16T06:08:53;102200.63;;;7.76;68.31
73453;BME280;61687;56.232;43.854;2022-10-16T06:11:21;102209.22;;;7.83;68.83
73453;BME280;61687;56.232;43.854;2022-10-16T06:13:56;102213.66;;;7.93;68.59
73453;BME280;61687;56.232;43.854;2022-10-16T06:16:23;102217.31;;;8.02;68.22
73453;BME280;61687;56.232;43.854;2022-10-16T06:18:53;102212.28;;;8.09;68.11
73453;BME280;61687;56.232;43.854;2022-10-16T06:21:21;102218.03;;;8.22;67.83
73453;BME280;61687;56.232;43.854;2022-10-16T06:23:48;102218.84;;;8.22;67.79
73453;BME280;61687;56.232;43.854;2022-10-16T06:26:19;102218.22;;;8.25;67.38
73453;BME280;61687;56.232;43.854;2022-10-16T06:28:45;102225.81;;;8.28;67.54
73453;BME280;61687;56.232;43.854;2022-10-16T06:31:12;102217.50;;;8.34;67.65
73453;BME280;61687;56.232;43.854;2022-10-16T06:33:39;102223.47;;;8.36;67.30
73453;BME280;61687;56.232;43.854;2022-10-16T06:36:11;102217.22;;;8.35;67.53
73453;BME280;61687;56.232;43.854;2022-10-16T06:38:38;102217.44;;;8.39;67.19
73453;BME280;61687;56.232;43.854;2022-10-16T06:41:05;102220.16;;;8.39;67.50
73453;BME280;61687;56.232;43.854;2022-10-16T06:43:31;102231.25;;;8.42;67.48
73453;BME280;61687;56.232;43.854;2022-10-16T06:45:59;102226.81;;;8.47;67.48
73453;BME280;61687;56.232;43.854;2022-10-16T06:48:25;102233.59;;;8.49;67.36
73453;BME280;61687;56.232;43.854;2022-10-16T06:51:06;102227.53;;;8.52;67.67
73453;BME280;61687;56.232;43.854;2022-10-16T06:53:34;102230.97;;;8.58;67.31
73453;BME280;61687;56.232;43.854;2022-10-16T06:56:18;102230.06;;;8.63;67.30
73453;BME280;61687;56.232;43.854;2022-10-16T06:58:45;102228.00;;;8.68;67.11
73453;BME280;61687;56.232;43.854;2022-10-16T07:01:12;102229.63;;;8.69;66.89
73453;BME280;61687;56.232;43.854;2022-10-16T07:03:40;102233.88;;;8.76;66.75
73453;BME280;61687;56.232;43.854;2022-10-16T07:06:09;102233.78;;;8.81;66.65
73453;BME280;61687;56.232;43.854;2022-10-16T07:08:36;102227.06;;;8.87;66.44
73453;BME280;61687;56.232;43.854;2022-10-16T07:11:05;102238.19;;;8.91;66.23
73453;BME280;61687;56.232;43.854;2022-10-16T07:13:33;102236.78;;;8.93;66.26
73453;BME280;61687;56.232;43.854;2022-10-16T07:16:11;102231.69;;;9.00;66.44
73453;BME280;61687;56.232;43.854;2022-10-16T07:18:37;102242.84;;;9.04;65.99
73453;BME280;61687;56.232;43.854;2022-10-16T07:21:14;102230.03;;;9.13;66.08
73453;BME280;61687;56.232;43.854;2022-10-16T07:23:40;102234.25;;;9.20;65.72
73453;BME280;61687;56.232;43.854;2022-10-16T07:26:07;102241.09;;;9.31;65.77
73453;BME280;61687;56.232;43.854;2022-10-16T07:28:33;102236.38;;;9.45;65.26
73453;BME280;61687;56.232;43.854;2022-10-16T07:31:03;102239.97;;;9.55;65.14
73453;BME280;61687;56.232;43.854;2022-10-16T07:33:30;102230.13;;;9.54;64.28
73453;BME280;61687;56.232;43.854;2022-10-16T07:35:56;102234.56;;;9.41;64.82
73453;BME280;61687;56.232;43.854;2022-10-16T07:38:23;102245.44;;;9.32;64.93
73453;BME280;61687;56.232;43.854;2022-10-16T07:40:56;102243.28;;;9.20;65.46
73453;BME280;61687;56.232;43.854;2022-10-16T07:43:23;102246.84;;;9.07;65.85
73453;BME280;61687;56.232;43.854;2022-10-16T07:45:49;102253.78;;;8.90;66.49
73453;BME280;61687;56.232;43.854;2022-10-16T07:48:17;102246.31;;;8.82;66.72
73453;BME280;61687;56.232;43.854;2022-10-16T07:50:43;102245.91;;;8.88;66.46
73453;BME280;61687;56.232;43.854;2022-10-16T07:53:10;102250.13;;;8.95;66.32
73453;BME280;61687;56.232;43.854;2022-10-16T07:55:36;102244.44;;;9.05;66.29
73453;BME280;61687;56.232;43.854;2022-10-16T07:58:02;102246.13;;;9.15;66.21
73453;BME280;61687;56.232;43.854;2022-10-16T08:00:28;102243.16;;;9.25;65.58
73453;BME280;61687;56.232;43.854;2022-10-16T08:02:54;102235.94;;;9.29;65.08
73453;BME280;61687;56.232;43.854;2022-10-16T08:05:20;102242.09;;;9.35;65.07
73453;BME280;61687;56.232;43.854;2022-10-16T08:07:49;102236.19;;;9.42;64.81
73453;BME280;61687;56.232;43.854;2022-10-16T08:10:19;102245.88;;;9.48;64.83
73453;BME280;61687;56.232;43.854;2022-10-16T08:12:46;102240.78;;;9.55;64.25
73453;BME280;61687;56.232;43.854;2022-10-16T08:15:12;102239.53;;;9.62;64.52
73453;BME280;61687;56.232;43.854;2022-10-16T08:17:38;102240.06;;;9.72;64.26
73453;BME280;61687;56.232;43.854;2022-10-16T08:20:04;102243.66;;;9.82;63.80
73453;BME280;61687;56.232;43.854;2022-10-16T08:22:30;102239.34;;;9.90;63.08
73453;BME280;61687;56.232;43.854;2022-10-16T08:24:56;102237.78;;;9.97;62.95
73453;BME280;61687;56.232;43.854;2022-10-16T08:27:22;102227.66;;;10.07;62.71
73453;BME280;61687;56.232;43.854;2022-10-16T08:29:48;102225.13;;;10.19;61.78
73453;BME280;61687;56.232;43.854;2022-10-16T08:32:15;102226.31;;;10.36;61.60
73453;BME280;61687;56.232;43.854;2022-10-16T08:34:41;102223.47;;;10.50;60.92
73453;BME280;61687;56.232;43.854;2022-10-16T08:37:06;102229.44;;;10.61;60.64
73453;BME280;61687;56.232;43.854;2022-10-16T08:39:36;102231.56;;;10.64;60.73
73453;BME280;61687;56.232;43.854;2022-10-16T08:50:33;102220.81;;;10.36;61.25
73453;BME280;61687;56.232;43.854;2022-10-16T08:53:04;102218.53;;;10.29;61.71
73453;BME280;61687;56.232;43.854;2022-10-16T08:55:31;102218.72;;;10.33;62.21
73453;BME280;61687;56.232;43.854;2022-10-16T08:58:00;102217.81;;;10.46;61.40
73453;BME280;61687;56.232;43.854;2022-10-16T09:00:26;102216.69;;;10.56;61.22
73453;BME280;61687;56.232;43.854;2022-10-16T09:13:28;102216.56;;;10.96;60.35
73453;BME280;61687;56.232;43.854;2022-10-16T09:18:51;102219.97;;;11.11;60.37
73453;BME280;61687;56.232;43.854;2022-10-16T09:21:31;102211.25;;;11.18;60.37
73453;BME280;61687;56.232;43.854;2022-10-16T09:24:29;102212.34;;;11.34;59.86
73453;BME280;61687;56.232;43.854;2022-10-16T09:26:55;102214.97;;;11.78;58.39
73453;BME280;61687;56.232;43.854;2022-10-16T09:29:21;102211.22;;;12.30;56.71
73453;BME280;61687;56.232;43.854;2022-10-16T09:31:52;102221.44;;;12.94;56.07
73453;BME280;61687;56.232;43.854;2022-10-16T09:34:35;102218.66;;;13.82;54.80
73453;BME280;61687;56.232;43.854;2022-10-16T09:37:09;102215.03;;;14.69;52.81
73453;BME280;61687;56.232;43.854;2022-10-16T09:39:51;102210.41;;;15.58;51.07
73453;BME280;61687;56.232;43.854;2022-10-16T09:42:23;102218.59;;;16.19;49.58
73453;BME280;61687;56.232;43.854;2022-10-16T09:44:50;102219.09;;;16.41;49.41
73453;BME280;61687;56.232;43.854;2022-10-16T09:47:20;102207.50;;;16.71;48.40
73453;BME280;61687;56.232;43.854;2022-10-16T09:49:59;102216.78;;;16.98;47.74
73453;BME280;61687;56.232;43.854;2022-10-16T09:52:29;102216.69;;;16.95;45.87
73453;BME280;61687;56.232;43.854;2022-10-16T09:54:57;102214.84;;;16.63;45.78
73453;BME280;61687;56.232;43.854;2022-10-16T09:57:24;102215.78;;;16.51;45.35
73453;BME280;61687;56.232;43.854;2022-10-16T09:59:57;102208.03;;;15.89;45.94
73453;BME280;61687;56.232;43.854;2022-10-16T10:02:34;102207.81;;;15.50;46.61
73453;BME280;61687;56.232;43.854;2022-10-16T10:05:01;102214.66;;;14.83;46.47
73453;BME280;61687;56.232;43.854;2022-10-16T10:07:32;102213.59;;;14.34;48.40
73453;BME280;61687;56.232;43.854;2022-10-16T10:10:02;102216.50;;;14.13;49.01
73453;BME280;61687;56.232;43.854;2022-10-16T10:12:30;102211.44;;;14.02;49.20
73453;BME280;61687;56.232;43.854;2022-10-16T10:15:10;102204.88;;;13.95;49.03
73453;BME280;61687;56.232;43.854;2022-10-16T10:17:56;102197.59;;;13.65;49.12
73453;BME280;61687;56.232;43.854;2022-10-16T10:20:33;102202.38;;;13.43;50.08
73453;BME280;61687;56.232;43.854;2022-10-16T10:23:21;102206.94;;;13.39;50.61
73453;BME280;61687;56.232;43.854;2022-10-16T10:26:03;102202.25;;;13.40;50.66
73453;BME280;61687;56.232;43.854;2022-10-16T10:47:59;102186.19;;;15.23;46.12
73453;BME280;61687;56.232;43.854;2022-10-16T10:55:54;102195.78;;;14.85;46.87
73453;BME280;61687;56.232;43.854;2022-10-16T11:01:08;102195.47;;;14.74;47.12
73453;BME280;61687;56.232;43.854;2022-10-16T11:06:28;102199.00;;;14.34;47.49
73453;BME280;61687;56.232;43.854;2022-10-16T11:09:00;102199.00;;;14.34;47.18
73453;BME280;61687;56.232;43.854;2022-10-16T11:11:41;102206.38;;;14.17;46.04
73453;BME280;61687;56.232;43.854;2022-10-16T11:17:28;102198.13;;;13.92;46.66
73453;BME280;61687;56.232;43.854;2022-10-16T11:22:34;102202.22;;;13.73;47.12
73453;BME280;61687;56.232;43.854;2022-10-16T11:27:40;102201.03;;;13.50;47.72
73453;BME280;61687;56.232;43.854;2022-10-16T11:30:21;102203.13;;;13.31;48.22
73453;BME280;61687;56.232;43.854;2022-10-16T11:32:53;102205.03;;;13.19;48.21
73453;BME280;61687;56.232;43.854;2022-10-16T11:35:24;102206.19;;;13.17;49.09
73453;BME280;61687;56.232;43.854;2022-10-16T11:37:51;102207.47;;;13.20;49.47
73453;BME280;61687;56.232;43.854;2022-10-16T11:40:32;102207.38;;;13.29;49.50
73453;BME280;61687;56.232;43.854;2022-10-16T11:43:15;102211.84;;;13.34;48.09
73453;BME280;61687;56.232;43.854;2022-10-16T11:45:46;102210.44;;;13.49;47.41
73453;BME280;61687;56.232;43.854;2022-10-16T11:56:44;102204.53;;;15.92;41.67
73453;BME280;61687;56.232;43.854;2022-10-16T12:01:48;102207.78;;;17.25;39.18
73453;BME280;61687;56.232;43.854;2022-10-16T12:09:31;102195.00;;;15.13;42.83
73453;BME280;61687;56.232;43.854;2022-10-16T12:11:58;102198.41;;;14.40;44.65
73453;BME280;61687;56.232;43.854;2022-10-16T12:16:54;102191.66;;;14.00;45.64
73453;BME280;61687;56.232;43.854;2022-10-16T12:19:21;102199.66;;;13.68;46.09
73453;BME280;61687;56.232;43.854;2022-10-16T12:21:48;102197.06;;;13.38;46.98
73453;BME280;61687;56.232;43.854;2022-10-16T12:26:54;102192.03;;;13.07;47.80
73453;BME280;61687;56.232;43.854;2022-10-16T12:31:52;102179.63;;;12.79;48.33
73453;BME280;61687;56.232;43.854;2022-10-16T12:37:15;102185.38;;;12.53;49.13
73453;BME280;61687;56.232;43.854;2022-10-16T12:39:45;102185.56;;;12.69;49.07
73453;BME280;61687;56.232;43.854;2022-10-16T12:44:50;102196.81;;;13.65;47.79
73453;BME280;61687;56.232;43.854;2022-10-16T12:49:57;102186.25;;;15.39;45.05
73453;BME280;61687;56.232;43.854;2022-10-16T12:55:00;102188.81;;;14.63;47.01
73453;BME280;61687;56.232;43.854;2022-10-16T12:58:00;102193.16;;;13.98;48.30
73453;BME280;61687;56.232;43.854;2022-10-16T13:05:38;102184.69;;;12.77;51.92
73453;BME280;61687;56.232;43.854;2022-10-16T13:27:59;102200.59;;;11.16;57.21
73453;BME280;61687;56.232;43.854;2022-10-16T13:30:27;102204.63;;;11.01;58.07
73453;BME280;61687;56.232;43.854;2022-10-16T13:35:53;102204.63;;;10.74;58.71
73453;BME280;61687;56.232;43.854;2022-10-16T13:38:25;102205.25;;;10.63;59.32
73453;BME280;61687;56.232;43.854;2022-10-16T13:40:56;102207.81;;;10.50;59.23
73453;BME280;61687;56.232;43.854;2022-10-16T13:43:46;102204.06;;;10.37;59.99
73453;BME280;61687;56.232;43.854;2022-10-16T13:46:18;102208.41;;;10.29;60.00
73453;BME280;61687;56.232;43.854;2022-10-16T13:49:05;102211.91;;;10.21;60.57
73453;BME280;61687;56.232;43.854;2022-10-16T13:51:32;102210.59;;;10.10;60.24
73453;BME280;61687;56.232;43.854;2022-10-16T13:53:59;102211.69;;;10.00;60.65
73453;BME280;61687;56.232;43.854;2022-10-16T13:56:27;102217.44;;;9.90;61.41
73453;BME280;61687;56.232;43.854;2022-10-16T13:59:00;102222.06;;;9.80;61.57
73453;BME280;61687;56.232;43.854;2022-10-16T14:01:41;102213.34;;;9.69;61.74
73453;BME280;61687;56.232;43.854;2022-10-16T14:04:11;102222.78;;;9.63;62.35
73453;BME280;61687;56.232;43.854;2022-10-16T14:06:42;102228.03;;;9.51;62.82
73453;BME280;61687;56.232;43.854;2022-10-16T14:09:29;102219.56;;;9.38;63.31
73453;BME280;61687;56.232;43.854;2022-10-16T14:12:00;102222.25;;;9.29;63.49
73453;BME280;61687;56.232;43.854;2022-10-16T14:14:45;102225.75;;;9.21;64.01
73453;BME280;61687;56.232;43.854;2022-10-16T14:17:18;102229.53;;;9.11;64.23
73453;BME280;61687;56.232;43.854;2022-10-16T14:19:50;102224.28;;;9.01;64.54
73453;BME280;61687;56.232;43.854;2022-10-16T14:25:01;102221.72;;;8.82;65.01
73453;BME280;61687;56.232;43.854;2022-10-16T14:27:34;102216.66;;;8.75;65.45
73453;BME280;61687;56.232;43.854;2022-10-16T14:30:19;102224.00;;;8.66;65.66
73453;BME280;61687;56.232;43.854;2022-10-16T14:32:58;102222.50;;;8.59;65.94
73453;BME280;61687;56.232;43.854;2022-10-16T14:35:30;102225.31;;;8.54;65.98
73453;BME280;61687;56.232;43.854;2022-10-16T14:37:58;102223.53;;;8.50;66.16
73453;BME280;61687;56.232;43.854;2022-10-16T14:40:28;102225.50;;;8.44;66.19
73453;BME280;61687;56.232;43.854;2022-10-16T14:42:54;102229.16;;;8.39;66.15
73453;BME280;61687;56.232;43.854;2022-10-16T14:45:23;102227.16;;;8.31;66.53
73453;BME280;61687;56.232;43.854;2022-10-16T14:47:55;102223.38;;;8.27;66.58
73453;BME280;61687;56.232;43.854;2022-10-16T14:50:22;102224.81;;;8.24;66.54
73453;BME280;61687;56.232;43.854;2022-10-16T14:52:48;102228.75;;;8.18;66.62
73453;BME280;61687;56.232;43.854;2022-10-16T14:55:14;102228.34;;;8.11;66.81
73453;BME280;61687;56.232;43.854;2022-10-16T14:57:41;102225.72;;;8.06;67.09
73453;BME280;61687;56.232;43.854;2022-10-16T15:00:22;102225.31;;;7.98;67.34
73453;BME280;61687;56.232;43.854;2022-10-16T15:02:49;102226.94;;;7.99;67.46
73453;BME280;61687;56.232;43.854;2022-10-16T15:07:41;102224.69;;;7.87;67.62
73453;BME280;61687;56.232;43.854;2022-10-16T15:10:07;102225.28;;;7.84;67.88
73453;BME280;61687;56.232;43.854;2022-10-16T15:12:33;102222.66;;;7.79;67.98
73453;BME280;61687;56.232;43.854;2022-10-16T15:14:59;102219.13;;;7.79;68.00
73453;BME280;61687;56.232;43.854;2022-10-16T15:17:25;102217.78;;;7.76;68.10
73453;BME280;61687;56.232;43.854;2022-10-16T15:19:51;102223.53;;;7.74;68.17
73453;BME280;61687;56.232;43.854;2022-10-16T15:22:17;102219.50;;;7.72;68.27
73453;BME280;61687;56.232;43.854;2022-10-16T15:24:43;102230.72;;;7.70;68.32